createdAt,value
2018-12-06T00:24:53.328Z,23.7
2018-12-06T00:25:43.660Z,23.4
2018-12-06T00:26:33.660Z,22.8
2018-12-06T00:27:23.470Z,22.3
2018-12-06T00:28:14.400Z,21.9
2018-12-06T00:29:04.116Z,21.6
2018-12-06T00:29:54.475Z,21.4
2018-12-06T00:30:44.595Z,21.2
2018-12-06T00:31:34.105Z,21
2018-12-06T00:32:24.328Z,20.8
2018-12-06T00:33:14.458Z,20.7
2018-12-06T00:34:04.725Z,20.6
2018-12-06T00:34:54.597Z,20.4
2018-12-06T00:35:43.844Z,20.4
2018-12-06T00:36:35.269Z,20.2
2018-12-06T00:37:24.152Z,20
2018-12-06T00:38:15.073Z,19.8
2018-12-06T00:39:04.999Z,19.6
2018-12-06T00:39:55.141Z,19.5
2018-12-06T00:40:44.477Z,19.3
2018-12-06T00:41:35.249Z,19.3
2018-12-06T00:42:24.491Z,19.1
2018-12-06T00:43:14.288Z,19.3
2018-12-06T00:44:05.774Z,19.9
2018-12-06T00:44:55.748Z,20.4
2018-12-06T00:45:45.531Z,21
2018-12-06T00:46:34.833Z,21.4
2018-12-06T00:47:25.368Z,21.6
2018-12-06T00:48:14.613Z,21.8
2018-12-06T00:49:06.407Z,22
2018-12-06T00:49:55.569Z,22.2
2018-12-06T00:50:45.691Z,22.4
2018-12-06T00:51:35.121Z,22.5
2018-12-06T00:52:25.712Z,22.6
2018-12-06T00:53:15.811Z,22.8
2018-12-06T00:54:05.853Z,22.9
2018-12-06T00:54:55.860Z,22.9
2018-12-06T00:55:46.242Z,23
2018-12-06T00:56:36.573Z,23.1
2018-12-06T00:57:25.790Z,23.2
2018-12-06T00:58:16.157Z,23.3
2018-12-06T00:59:06.017Z,23.3
2018-12-06T00:59:55.436Z,23.3
2018-12-06T01:00:46.557Z,23.4
2018-12-06T01:01:36.120Z,23.5
2018-12-06T01:02:26.747Z,23.6
2018-12-06T01:03:16.579Z,23.6
2018-12-06T01:04:06.902Z,23.7
2018-12-06T01:04:56.380Z,23.3
2018-12-06T01:05:46.392Z,22.8
2018-12-06T01:06:36.804Z,22.3
2018-12-06T01:07:26.906Z,21.9
2018-12-06T01:08:16.577Z,21.6
2018-12-06T01:09:07.259Z,21.4
2018-12-06T01:10:47.293Z,21
2018-12-06T01:11:36.237Z,20.8
2018-12-06T01:12:27.361Z,20.6
2018-12-06T01:13:17.154Z,20.6
2018-12-06T01:14:07.239Z,20.5
2018-12-06T01:14:57.915Z,20.3
2018-12-06T01:15:48.494Z,20.1
2018-12-06T01:16:36.846Z,19.9
2018-12-06T01:17:27.156Z,19.8
2018-12-06T01:18:17.548Z,19.6
2018-12-06T01:19:06.745Z,19.4
2018-12-06T01:19:56.521Z,19.3
2018-12-06T01:20:47.713Z,19.2
2018-12-06T01:21:38.078Z,19.1
2018-12-06T01:22:27.739Z,19.4
2018-12-06T01:23:17.868Z,20.1
2018-12-06T01:24:08.447Z,20.6
2018-12-06T01:25:47.895Z,21.5
2018-12-06T01:26:37.528Z,21.8
2018-12-06T01:27:27.660Z,21.9
2018-12-06T01:28:18.495Z,22.1
2018-12-06T01:29:08.268Z,22.3
2018-12-06T01:29:57.225Z,22.4
2018-12-06T01:30:48.426Z,22.5
2018-12-06T01:31:38.452Z,22.6
2018-12-06T01:32:28.813Z,22.8
2018-12-06T01:33:18.590Z,22.8
2018-12-06T01:34:08.625Z,22.9
2018-12-06T01:34:57.855Z,23
2018-12-06T01:35:48.975Z,23.1
2018-12-06T01:36:38.795Z,23.2
2018-12-06T01:37:28.850Z,23.3
2018-12-06T01:38:18.349Z,23.3
2018-12-06T01:39:08.700Z,23.3
2018-12-06T01:39:58.467Z,23.4
2018-12-06T01:40:49.122Z,23.5
2018-12-06T01:41:39.934Z,23.6
2018-12-06T01:42:29.790Z,23.6
2018-12-06T01:43:18.709Z,23.6
2018-12-06T01:44:09.034Z,23.6
2018-12-06T01:44:58.329Z,22.9
2018-12-06T01:45:49.417Z,22.4
2018-12-06T01:46:39.247Z,22.1
2018-12-06T01:47:29.122Z,21.8
2018-12-06T01:48:19.359Z,21.4
2018-12-06T01:49:09.497Z,21.2
2018-12-06T01:49:59.454Z,21
2018-12-06T01:50:50.074Z,20.9
2018-12-06T01:51:40.066Z,20.7
2018-12-06T01:52:29.313Z,20.6
2018-12-06T01:53:19.376Z,20.5
2018-12-06T01:54:09.133Z,20.4
2018-12-06T01:54:59.868Z,20.2
2018-12-06T01:55:49.563Z,19.9
2018-12-06T01:56:40.723Z,19.8
2018-12-06T01:57:30.257Z,19.6
2018-12-06T01:58:20.591Z,19.4
2018-12-06T01:59:10.333Z,19.4
2018-12-06T02:00:00.695Z,19.2
2018-12-06T02:00:50.208Z,19.1
2018-12-06T02:01:40.303Z,19.1
2018-12-06T02:02:29.452Z,19.6
2018-12-06T02:03:19.825Z,20.3
2018-12-06T02:04:10.410Z,20.8
2018-12-06T02:05:00.757Z,21.3
2018-12-06T02:05:50.613Z,21.6
2018-12-06T02:06:40.325Z,21.8
2018-12-06T02:07:30.362Z,22
2018-12-06T02:08:21.253Z,22.1
2018-12-06T02:09:10.764Z,22.3
2018-12-06T02:10:00.534Z,22.4
2018-12-06T02:10:50.940Z,22.6
2018-12-06T02:11:40.664Z,22.7
2018-12-06T02:12:31.027Z,22.8
2018-12-06T02:13:21.334Z,22.9
2018-12-06T02:14:11.109Z,22.9
2018-12-06T02:15:01.018Z,23
2018-12-06T02:15:51.199Z,23.1
2018-12-06T02:16:40.816Z,23.3
2018-12-06T02:17:30.852Z,23.3
2018-12-06T02:18:21.659Z,23.3
2018-12-06T02:19:12.093Z,22.7
2018-12-06T02:20:01.504Z,21.8
2018-12-06T02:20:51.297Z,20.8
2018-12-06T02:21:41.419Z,19.9
2018-12-06T02:22:31.358Z,19.3
2018-12-06T02:23:21.728Z,19.2
2018-12-06T02:24:11.880Z,19.5
2018-12-06T02:25:02.188Z,20.3
2018-12-06T02:25:52.464Z,20.9
2018-12-06T02:26:42.826Z,21.4
2018-12-06T02:27:32.068Z,21.8
2018-12-06T02:28:22.151Z,22
2018-12-06T02:29:12.187Z,22.3
2018-12-06T02:30:02.056Z,22.4
2018-12-06T02:30:52.378Z,22.6
2018-12-06T02:31:42.752Z,22.8
2018-12-06T02:32:32.793Z,22.9
2018-12-06T02:33:22.486Z,23
2018-12-06T02:34:13.657Z,23.1
2018-12-06T02:35:03.352Z,23.2
2018-12-06T02:35:51.817Z,23.3
2018-12-06T02:36:43.088Z,23.4
2018-12-06T02:37:33.625Z,23.4
2018-12-06T02:38:22.935Z,23.4
2018-12-06T02:39:13.327Z,23.6
2018-12-06T02:40:02.950Z,23.6
2018-12-06T02:40:53.030Z,23.7
2018-12-06T02:41:43.037Z,23.2
2018-12-06T02:42:33.108Z,22.6
2018-12-06T02:43:22.947Z,22.2
2018-12-06T02:44:12.696Z,21.8
2018-12-06T02:45:03.228Z,21.5
2018-12-06T02:45:53.047Z,21.3
2018-12-06T02:46:42.854Z,21.1
2018-12-06T02:47:33.829Z,20.9
2018-12-06T02:48:23.868Z,20.8
2018-12-06T02:49:14.438Z,20.6
2018-12-06T02:50:04.539Z,20.5
2018-12-06T02:50:53.409Z,20.4
2018-12-06T02:51:43.164Z,20.3
2018-12-06T02:52:33.851Z,20
2018-12-06T02:53:24.549Z,19.8
2018-12-06T02:54:13.729Z,19.7
2018-12-06T02:55:04.268Z,19.5
2018-12-06T02:55:54.271Z,19.4
2018-12-06T02:56:43.997Z,19.3
2018-12-06T02:57:34.509Z,19.2
2018-12-06T02:58:23.876Z,19.1
2018-12-06T02:59:14.299Z,19.4
2018-12-06T03:00:04.673Z,20.1
2018-12-06T03:00:54.074Z,20.7
2018-12-06T03:02:34.184Z,21.5
2018-12-06T03:03:25.161Z,21.8
2018-12-06T03:04:15.383Z,22
2018-12-06T03:05:05.019Z,22.1
2018-12-06T03:05:55.011Z,22.3
2018-12-06T03:06:45.091Z,22.4
2018-12-06T03:07:34.824Z,22.5
2018-12-06T03:08:25.112Z,22.6
2018-12-06T03:09:14.958Z,22.7
2018-12-06T03:10:05.284Z,22.8
2018-12-06T03:10:55.330Z,22.9
2018-12-06T03:11:45.406Z,22.9
2018-12-06T03:12:35.160Z,23
2018-12-06T03:13:25.088Z,23.1
2018-12-06T03:14:15.007Z,23.2
2018-12-06T03:15:06.273Z,23.3
2018-12-06T03:15:55.126Z,23.4
2018-12-06T03:16:45.439Z,23.4
2018-12-06T03:17:35.785Z,23.4
2018-12-06T03:18:26.110Z,23.5
2018-12-06T03:19:16.175Z,23.6
2018-12-06T03:20:06.260Z,23.6
2018-12-06T03:20:56.253Z,23.4
2018-12-06T03:21:45.598Z,22.8
2018-12-06T03:22:36.397Z,22.4
2018-12-06T03:23:25.919Z,21.9
2018-12-06T03:24:16.278Z,21.6
2018-12-06T03:25:06.072Z,21.4
2018-12-06T03:26:45.575Z,20.9
2018-12-06T03:27:36.492Z,20.8
2018-12-06T03:28:26.051Z,20.7
2018-12-06T03:29:16.326Z,20.5
2018-12-06T03:30:06.450Z,20.4
2018-12-06T03:30:57.386Z,20.3
2018-12-06T03:31:46.977Z,20.1
2018-12-06T03:32:36.706Z,19.9
2018-12-06T03:33:27.568Z,19.7
2018-12-06T03:34:17.197Z,19.6
2018-12-06T03:35:07.538Z,19.4
2018-12-06T03:35:56.347Z,19.3
2018-12-06T03:36:49.591Z,19.1
2018-12-06T03:37:36.710Z,19.1
2018-12-06T03:38:26.180Z,19.1
2018-12-06T03:39:17.018Z,19.7
2018-12-06T03:40:07.119Z,20.3
2018-12-06T03:40:57.361Z,20.8
2018-12-06T03:41:47.152Z,21.3
2018-12-06T03:42:35.872Z,21.6
2018-12-06T03:43:26.987Z,21.8
2018-12-06T03:44:17.104Z,22
2018-12-06T03:45:07.647Z,22.2
2018-12-06T03:45:57.973Z,22.3
2018-12-06T03:46:48.186Z,22.4
2018-12-06T03:47:37.394Z,22.6
2018-12-06T03:48:27.875Z,22.6
2018-12-06T03:49:18.046Z,22.8
2018-12-06T03:50:07.610Z,22.9
2018-12-06T03:50:58.381Z,22.9
2018-12-06T03:51:48.138Z,23
2018-12-06T03:52:38.594Z,23.1
2018-12-06T03:53:27.398Z,23.1
2018-12-06T03:54:18.829Z,23.2
2018-12-06T03:55:07.918Z,23.3
2018-12-06T03:55:58.426Z,23.3
2018-12-06T03:56:48.278Z,23.4
2018-12-06T03:57:37.179Z,23.4
2018-12-06T03:58:28.865Z,23.5
2018-12-06T03:59:18.658Z,23.6
2018-12-06T04:00:09.275Z,23.6
2018-12-06T04:00:58.761Z,23.4
2018-12-06T04:01:48.832Z,22.8
2018-12-06T04:02:38.559Z,22.3
2018-12-06T04:03:28.643Z,21.9
2018-12-06T04:04:19.328Z,21.6
2018-12-06T04:05:08.780Z,21.3
2018-12-06T04:05:59.385Z,21.1
2018-12-06T04:06:49.382Z,20.9
2018-12-06T04:07:39.270Z,20.8
2018-12-06T04:08:28.731Z,20.6
2018-12-06T04:09:19.724Z,20.5
2018-12-06T04:10:10.675Z,20.4
2018-12-06T04:11:00.065Z,20.3
2018-12-06T04:11:49.767Z,20.1
2018-12-06T04:12:38.551Z,19.9
2018-12-06T04:13:29.725Z,19.8
2018-12-06T04:14:18.883Z,19.6
2018-12-06T04:15:09.808Z,19.4
2018-12-06T04:15:59.818Z,19.3
2018-12-06T04:16:49.826Z,19.3
2018-12-06T04:17:40.165Z,19.1
2018-12-06T04:18:29.418Z,19.2
2018-12-06T04:19:19.807Z,19.8
2018-12-06T04:20:09.840Z,20.4
2018-12-06T04:21:00.631Z,20.9
2018-12-06T04:21:49.645Z,21.3
2018-12-06T04:22:40.250Z,21.6
2018-12-06T04:23:30.420Z,21.8
2018-12-06T04:24:20.511Z,22
2018-12-06T04:25:25.263Z,22.3
2018-12-06T04:26:00.510Z,22.4
2018-12-06T04:26:50.518Z,22.5
2018-12-06T04:27:40.303Z,22.6
2018-12-06T04:28:30.360Z,22.7
2018-12-06T04:29:20.956Z,22.8
2018-12-06T04:30:10.069Z,22.9
2018-12-06T04:31:01.662Z,22.9
2018-12-06T04:31:50.315Z,23
2018-12-06T04:32:41.227Z,23.1
2018-12-06T04:33:30.727Z,23.2
2018-12-06T04:34:20.303Z,23.2
2018-12-06T04:35:10.845Z,23.3
2018-12-06T04:36:01.472Z,23.4
2018-12-06T04:36:50.732Z,23.4
2018-12-06T04:54:09.866Z,19.6
2018-12-06T04:54:58.938Z,19.4
2018-12-06T04:55:49.223Z,19.3
2018-12-06T04:56:39.344Z,19.2
2018-12-06T04:57:29.843Z,19.1
2018-12-06T04:58:19.985Z,19.3
2018-12-06T04:59:10.284Z,19.9
2018-12-06T04:59:59.773Z,20.4
2018-12-06T05:00:50.103Z,20.9
2018-12-06T05:01:38.708Z,21.4
2018-12-06T05:02:29.881Z,21.7
2018-12-06T05:03:19.181Z,21.9
2018-12-06T05:04:10.221Z,22.1
2018-12-06T05:04:59.476Z,22.3
2018-12-06T05:05:49.068Z,22.4
2018-12-06T05:06:40.163Z,22.5
2018-12-06T05:07:29.731Z,22.6
2018-12-06T05:08:19.453Z,22.7
2018-12-06T05:09:10.328Z,22.8
2018-12-06T05:10:00.631Z,22.9
2018-12-06T05:10:49.957Z,22.9
2018-12-06T05:11:40.217Z,23.1
2018-12-06T05:12:28.127Z,23.1
2018-12-06T05:13:20.335Z,23.1
2018-12-06T05:14:11.272Z,23.2
2018-12-06T05:15:01.042Z,23.3
2018-12-06T05:15:50.525Z,23.4
2018-12-06T05:16:40.557Z,23.4
2018-12-06T05:17:29.490Z,23.1
2018-12-06T05:18:20.397Z,22.6
2018-12-06T05:19:10.972Z,21.5
2018-12-06T05:20:01.225Z,20.5
2018-12-06T05:20:50.862Z,19.6
2018-12-06T05:21:40.645Z,19.4
2018-12-06T05:22:30.989Z,19.4
2018-12-06T05:23:20.745Z,20.1
2018-12-06T05:24:10.765Z,20.8
2018-12-06T05:25:01.417Z,21.3
2018-12-06T05:25:50.132Z,21.7
2018-12-06T05:26:41.510Z,21.9
2018-12-06T05:27:31.627Z,22.2
2018-12-06T05:28:20.516Z,22.3
2018-12-06T05:29:11.129Z,22.5
2018-12-06T05:30:02.553Z,22.6
2018-12-06T05:30:52.169Z,22.8
2018-12-06T05:31:40.765Z,22.8
2018-12-06T05:32:31.996Z,22.9
2018-12-06T05:33:20.869Z,23
2018-12-06T05:34:11.213Z,23.1
2018-12-06T05:35:02.146Z,23.2
2018-12-06T05:35:52.143Z,23.3
2018-12-06T05:36:41.548Z,23.3
2018-12-06T05:37:31.721Z,23.4
2018-12-06T05:38:22.056Z,23.4
2018-12-06T05:39:11.848Z,23.5
2018-12-06T05:40:02.171Z,23.6
2018-12-06T05:40:52.523Z,23.1
2018-12-06T05:41:42.315Z,22.5
2018-12-06T05:42:31.868Z,22.1
2018-12-06T05:43:22.670Z,21.7
2018-12-06T05:44:11.893Z,21.4
2018-12-06T05:45:53.379Z,20.9
2018-12-06T05:46:42.889Z,20.8
2018-12-06T05:47:32.260Z,20.6
2018-12-06T05:48:22.013Z,20.4
2018-12-06T05:49:12.862Z,20.4
2018-12-06T05:50:02.442Z,20.2
2018-12-06T05:50:53.094Z,20.2
2018-12-06T05:51:43.240Z,20
2018-12-06T05:52:33.092Z,19.8
2018-12-06T05:53:22.787Z,19.6
2018-12-06T05:54:12.564Z,19.5
2018-12-06T05:55:03.500Z,19.4
2018-12-06T05:55:53.009Z,19.2
2018-12-06T05:56:43.417Z,19.1
2018-12-06T05:57:31.634Z,19
2018-12-06T05:58:22.166Z,19.3
2018-12-06T05:59:12.990Z,19.9
2018-12-06T06:00:03.304Z,20.4
2018-12-06T06:00:54.442Z,20.9
2018-12-06T06:01:43.201Z,21.4
2018-12-06T06:02:33.941Z,21.6
2018-12-06T06:03:23.486Z,21.9
2018-12-06T06:04:14.201Z,22
2018-12-06T06:05:04.521Z,22.2
2018-12-06T06:05:53.961Z,22.3
2018-12-06T06:06:44.249Z,22.4
2018-12-06T06:07:33.840Z,22.5
2018-12-06T06:08:23.356Z,22.6
2018-12-06T06:09:13.900Z,22.7
2018-12-06T06:10:04.305Z,22.8
2018-12-06T06:10:53.738Z,22.8
2018-12-06T06:11:44.350Z,22.9
2018-12-06T06:12:34.899Z,23
2018-12-06T06:13:24.781Z,23
2018-12-06T06:14:14.283Z,23.1
2018-12-06T06:15:04.578Z,23.2
2018-12-06T06:15:53.460Z,23.3
2018-12-06T06:16:44.624Z,23.3
2018-12-06T06:17:35.030Z,23.3
2018-12-06T06:18:24.082Z,23.4
2018-12-06T06:19:14.545Z,23.4
2018-12-06T06:20:04.890Z,23.4
2018-12-06T06:20:55.006Z,23.5
2018-12-06T06:21:45.273Z,23.5
2018-12-06T06:22:35.488Z,23.1
2018-12-06T06:23:25.731Z,22.6
2018-12-06T06:24:15.150Z,22.1
2018-12-06T06:25:05.692Z,21.8
2018-12-06T06:25:55.070Z,21.5
2018-12-06T06:26:45.160Z,21.3
2018-12-06T06:27:34.964Z,21
2018-12-06T06:28:25.289Z,20.9
2018-12-06T06:29:15.687Z,20.7
2018-12-06T06:30:05.311Z,20.5
2018-12-06T06:30:55.177Z,20.4
2018-12-06T06:31:44.631Z,20.3
2018-12-06T06:32:35.063Z,20.3
2018-12-06T06:33:26.719Z,20
2018-12-06T06:34:15.014Z,19.8
2018-12-06T06:35:05.709Z,19.6
2018-12-06T06:35:56.327Z,19.4
2018-12-06T06:36:44.921Z,19.3
2018-12-06T06:37:35.826Z,19.2
2018-12-06T06:38:25.315Z,19
2018-12-06T06:39:17.726Z,19
2018-12-06T06:40:05.506Z,19.3
2018-12-06T06:40:55.481Z,19.9
2018-12-06T06:41:46.130Z,20.4
2018-12-06T06:42:36.434Z,20.9
2018-12-06T06:43:25.650Z,21.3
2018-12-06T06:44:16.531Z,21.6
2018-12-06T06:45:06.340Z,21.8
2018-12-06T06:45:57.010Z,21.9
2018-12-06T06:46:46.783Z,22.1
2018-12-06T06:47:37.652Z,22.2
2018-12-06T06:48:26.535Z,22.3
2018-12-06T06:49:22.882Z,22.4
2018-12-06T06:50:06.939Z,22.6
2018-12-06T06:50:56.980Z,22.7
2018-12-06T06:51:47.293Z,22.8
2018-12-06T06:52:37.620Z,22.8
2018-12-06T06:53:25.835Z,22.9
2018-12-06T06:54:16.440Z,22.9
2018-12-06T06:55:07.550Z,22.9
2018-12-06T06:55:57.597Z,23.1
2018-12-06T06:56:47.368Z,23
2018-12-06T06:57:36.133Z,23.1
2018-12-06T06:58:27.500Z,23.2
2018-12-06T06:59:16.737Z,23.3
2018-12-06T07:00:08.180Z,23.3
2018-12-06T07:00:57.930Z,23.4
2018-12-06T07:01:48.265Z,23.4
2018-12-06T07:02:37.935Z,23.4
2018-12-06T07:03:27.900Z,23.5
2018-12-06T07:04:17.880Z,23.4
2018-12-06T07:05:07.927Z,22.9
2018-12-06T07:05:57.738Z,22.3
2018-12-06T07:06:47.769Z,21.9
2018-12-06T07:07:37.547Z,21.6
2018-12-06T07:08:28.996Z,21.3
2018-12-06T07:09:18.214Z,21.1
2018-12-06T07:10:07.722Z,20.9
2018-12-06T07:10:58.442Z,20.7
2018-12-06T07:11:48.700Z,20.5
2018-12-06T07:12:38.465Z,20.4
2018-12-06T07:13:28.844Z,20.3
2018-12-06T07:14:18.037Z,20.1
2018-12-06T07:15:09.017Z,20.1
2018-12-06T07:15:58.687Z,19.9
2018-12-06T07:16:48.473Z,19.7
2018-12-06T07:17:38.817Z,19.6
2018-12-06T07:18:28.844Z,19.4
2018-12-06T07:19:18.609Z,19.2
2018-12-06T07:20:08.686Z,19.1
2018-12-06T07:20:58.727Z,19
2018-12-06T07:21:48.524Z,18.9
2018-12-06T07:22:38.564Z,18.8
2018-12-06T07:23:30.144Z,18.6
2018-12-06T07:24:19.844Z,18.6
2018-12-06T07:25:09.331Z,18.6
2018-12-06T07:25:59.364Z,18.4
2018-12-06T07:26:51.663Z,18.4
2018-12-06T07:27:39.546Z,18.3
2018-12-06T07:28:29.239Z,18.1
2018-12-06T07:29:19.566Z,18.1
2018-12-06T07:30:16.372Z,18.2
2018-12-06T07:30:59.513Z,19
2018-12-06T07:31:49.769Z,19.5
2018-12-06T07:32:39.061Z,20
2018-12-06T07:33:29.651Z,20.5
2018-12-06T07:34:19.928Z,21
2018-12-06T07:35:09.753Z,21.3
2018-12-06T07:36:00.351Z,21.5
2018-12-06T07:36:50.140Z,21.7
2018-12-06T07:37:39.663Z,21.8
2018-12-06T07:38:30.762Z,22
2018-12-06T07:39:20.199Z,22.1
2018-12-06T07:40:09.797Z,22.2
2018-12-06T07:41:00.385Z,22.3
2018-12-06T07:41:49.918Z,22.4
2018-12-06T07:42:40.515Z,22.5
2018-12-06T07:43:32.357Z,22.6
2018-12-06T07:44:20.934Z,22.7
2018-12-06T07:45:10.681Z,22.8
2018-12-06T07:46:00.743Z,22.8
2018-12-06T07:46:50.038Z,22.9
2018-12-06T07:47:40.039Z,22.9
2018-12-06T07:48:30.634Z,23.1
2018-12-06T07:49:21.587Z,23.1
2018-12-06T07:50:11.039Z,23.1
2018-12-06T07:51:01.449Z,23.2
2018-12-06T07:51:50.417Z,23.3
2018-12-06T07:52:40.141Z,23.3
2018-12-06T07:53:31.062Z,23.3
2018-12-06T07:54:22.667Z,23.3
2018-12-06T07:55:11.476Z,23.4
2018-12-06T07:56:00.969Z,23.4
2018-12-06T07:56:50.734Z,22.8
2018-12-06T07:57:40.479Z,22.3
2018-12-06T07:58:30.853Z,21.9
2018-12-06T07:59:22.632Z,21.6
2018-12-06T08:00:11.781Z,21.2
2018-12-06T08:01:01.248Z,21
2018-12-06T08:01:51.833Z,20.8
2018-12-06T08:02:42.189Z,20.6
2018-12-06T08:03:31.439Z,20.5
2018-12-06T08:04:22.784Z,20.4
2018-12-06T08:05:11.598Z,20.3
2018-12-06T08:06:02.390Z,20.2
2018-12-06T08:06:52.474Z,20
2018-12-06T08:07:41.978Z,19.8
2018-12-06T08:08:32.099Z,19.6
2018-12-06T08:09:22.880Z,19.4
2018-12-06T08:10:12.128Z,19.3
2018-12-06T08:11:01.991Z,19.1
2018-12-06T08:11:53.040Z,18.9
2018-12-06T08:12:42.581Z,18.9
2018-12-06T08:13:32.971Z,18.8
2018-12-06T08:15:13.291Z,18.6
2018-12-06T08:16:01.770Z,18.5
2018-12-06T08:16:52.560Z,18.6
2018-12-06T08:17:42.656Z,18.4
2018-12-06T08:18:33.550Z,18.3
2018-12-06T08:19:23.058Z,18.2
2018-12-06T08:20:13.885Z,18.1
2018-12-06T08:21:02.073Z,18
2018-12-06T08:21:54.075Z,18.3
2018-12-06T08:22:43.274Z,19
2018-12-06T08:23:33.612Z,19.6
2018-12-06T08:24:23.105Z,20.2
2018-12-06T08:25:13.496Z,20.7
2018-12-06T08:26:53.279Z,21.4
2018-12-06T08:27:43.362Z,21.6
2018-12-06T08:28:32.852Z,21.8
2018-12-06T08:29:23.187Z,21.9
2018-12-06T08:30:14.010Z,22.1
2018-12-06T08:31:04.395Z,21.8
2018-12-06T08:31:52.657Z,21.2
2018-12-06T08:32:44.137Z,20.3
2018-12-06T08:33:32.912Z,19.5
2018-12-06T08:34:24.094Z,18.6
2018-12-06T08:35:14.719Z,18.1
2018-12-06T08:36:03.979Z,18.1
2018-12-06T08:36:54.017Z,18.4
2018-12-06T08:37:44.917Z,19.2
2018-12-06T08:38:34.391Z,19.8
2018-12-06T08:39:22.764Z,20.4
2018-12-06T08:40:14.546Z,20.9
2018-12-06T08:41:02.981Z,21.3
2018-12-06T08:41:54.318Z,21.5
2018-12-06T08:42:52.626Z,21.7
2018-12-06T08:43:36.193Z,21.9
2018-12-06T08:44:29.990Z,22
2018-12-06T08:45:15.173Z,22.2
2018-12-06T08:46:04.044Z,22.3
2018-12-06T08:46:54.353Z,22.4
2018-12-06T08:47:44.718Z,22.6
2018-12-06T08:48:34.771Z,22.6
2018-12-06T08:49:25.386Z,22.8
2018-12-06T08:50:15.696Z,22.8
2018-12-06T08:51:04.918Z,22.9
2018-12-06T08:51:55.251Z,22.9
2018-12-06T09:08:33.105Z,20.6
2018-12-06T09:09:22.869Z,20.4
2018-12-06T09:10:12.585Z,20.3
2018-12-06T09:11:02.614Z,20.2
2018-12-06T09:11:53.222Z,20.1
2018-12-06T09:12:43.491Z,19.9
2018-12-06T09:13:33.074Z,19.7
2018-12-06T09:14:23.864Z,19.5
2018-12-06T09:15:13.382Z,19.3
2018-12-06T09:16:03.439Z,19.2
2018-12-06T09:16:54.071Z,19.1
2018-12-06T09:17:43.911Z,18.9
2018-12-06T09:18:34.766Z,18.8
2018-12-06T09:19:22.599Z,18.8
2018-12-06T09:21:04.339Z,18.6
2018-12-06T09:21:53.316Z,18.6
2018-12-06T09:22:43.706Z,18.5
2018-12-06T09:23:34.223Z,18.4
2018-12-06T09:24:24.083Z,18.3
2018-12-06T09:25:22.556Z,18.1
2018-12-06T09:26:04.691Z,18.1
2018-12-06T09:27:01.904Z,18.5
2018-12-06T09:27:44.643Z,19.4
2018-12-06T09:28:35.088Z,19.9
2018-12-06T09:29:24.654Z,20.4
2018-12-06T09:30:14.950Z,20.9
2018-12-06T09:31:09.746Z,21.3
2018-12-06T09:31:54.786Z,21.5
2018-12-06T09:32:43.468Z,21.7
2018-12-06T09:33:34.588Z,21.9
2018-12-06T09:34:25.753Z,22.1
2018-12-06T09:35:14.593Z,22.2
2018-12-06T09:36:04.610Z,22.3
2018-12-06T09:36:54.878Z,22.4
2018-12-06T09:37:45.796Z,22.6
2018-12-06T09:38:35.018Z,22.7
2018-12-06T09:39:24.505Z,22.8
2018-12-06T09:40:14.546Z,22.9
2018-12-06T09:41:04.862Z,22.9
2018-12-06T09:41:55.232Z,23.1
2018-12-06T09:42:45.279Z,23.2
2018-12-06T09:43:34.840Z,23.3
2018-12-06T09:44:26.008Z,23.3
2018-12-06T09:45:15.520Z,23.4
2018-12-06T09:46:05.232Z,23.4
2018-12-06T09:46:55.287Z,23.5
2018-12-06T09:47:46.440Z,23.6
2018-12-06T09:48:35.941Z,23.6
2018-12-06T09:49:26.305Z,23.7
2018-12-06T09:50:15.527Z,23.4
2018-12-06T09:51:08.017Z,22.8
2018-12-06T09:51:56.447Z,22.3
2018-12-06T09:52:46.520Z,21.9
2018-12-06T09:53:35.747Z,21.6
2018-12-06T09:54:25.920Z,21.3
2018-12-06T09:55:16.674Z,21.1
2018-12-06T09:56:06.724Z,20.9
2018-12-06T09:56:56.249Z,20.8
2018-12-06T09:57:45.749Z,20.6
2018-12-06T09:58:36.651Z,20.5
2018-12-06T09:59:27.025Z,20.4
2018-12-06T10:00:16.594Z,20.4
2018-12-06T10:01:06.611Z,20.1
2018-12-06T10:01:56.934Z,19.9
2018-12-06T10:02:46.916Z,19.7
2018-12-06T10:03:36.509Z,19.6
2018-12-06T10:04:27.114Z,19.4
2018-12-06T10:05:18.594Z,19.3
2018-12-06T10:06:06.619Z,19.1
2018-12-06T10:06:56.680Z,19
2018-12-06T10:07:46.740Z,18.9
2018-12-06T10:08:37.304Z,18.8
2018-12-06T10:10:17.779Z,18.6
2018-12-06T10:11:08.124Z,18.6
2018-12-06T10:11:57.071Z,18.5
2018-12-06T10:12:45.476Z,18.4
2018-12-06T10:13:37.131Z,18.3
2018-12-06T10:14:28.459Z,18.2
2018-12-06T10:15:17.858Z,18.3
2018-12-06T10:16:07.823Z,19
2018-12-06T10:16:57.634Z,19.7
2018-12-06T10:17:47.396Z,20.3
2018-12-06T10:18:38.388Z,20.8
2018-12-06T10:19:28.365Z,21.3
2018-12-06T10:20:18.188Z,21.6
2018-12-06T10:21:07.993Z,21.8
2018-12-06T10:21:57.938Z,22
2018-12-06T10:22:47.738Z,22.1
2018-12-06T10:23:39.262Z,22.3
2018-12-06T10:24:28.688Z,22.4
2018-12-06T10:25:18.498Z,22.6
2018-12-06T10:26:08.528Z,22.8
2018-12-06T10:26:58.333Z,22.8
2018-12-06T10:27:48.643Z,22.9
2018-12-06T10:28:38.423Z,23
2018-12-06T10:29:28.841Z,23.1
2018-12-06T10:30:18.888Z,23.2
2018-12-06T10:31:08.970Z,23.3
2018-12-06T10:31:58.656Z,23.4
2018-12-06T10:32:48.982Z,23.4
2018-12-06T10:33:38.502Z,23.5
2018-12-06T10:34:28.867Z,23.6
2018-12-06T10:35:20.108Z,23.6
2018-12-06T10:36:09.232Z,23.7
2018-12-06T10:36:59.334Z,23.6
2018-12-06T10:37:48.644Z,22.9
2018-12-06T10:38:39.189Z,22.4
2018-12-06T10:39:29.079Z,22
2018-12-06T10:40:19.767Z,21.7
2018-12-06T10:41:09.574Z,21.4
2018-12-06T10:42:00.159Z,21.2
2018-12-06T10:42:49.487Z,21.1
2018-12-06T10:43:39.752Z,20.8
2018-12-06T10:44:29.544Z,20.7
2018-12-06T10:45:19.906Z,20.6
2018-12-06T10:46:10.195Z,20.5
2018-12-06T10:47:00.211Z,20.4
2018-12-06T10:47:50.029Z,20.3
2018-12-06T10:48:40.102Z,20.1
2018-12-06T10:49:29.675Z,19.9
2018-12-06T10:50:20.261Z,19.6
2018-12-06T10:51:12.007Z,19.5
2018-12-06T10:52:00.016Z,19.3
2018-12-06T10:52:49.838Z,19.2
2018-12-06T10:53:39.868Z,19.1
2018-12-06T10:54:30.308Z,19
2018-12-06T10:55:19.856Z,18.9
2018-12-06T10:56:11.718Z,18.8
2018-12-06T10:57:49.669Z,18.6
2018-12-06T10:58:39.926Z,18.6
2018-12-06T10:59:31.413Z,18.8
2018-12-06T11:00:21.451Z,19.6
2018-12-06T11:01:10.952Z,20.3
2018-12-06T11:02:01.794Z,20.8
2018-12-06T11:02:50.798Z,21.3
2018-12-06T11:03:41.403Z,21.6
2018-12-06T11:04:30.969Z,21.8
2018-12-06T11:05:20.973Z,22.1
2018-12-06T11:06:11.273Z,22.3
2018-12-06T11:07:01.451Z,22.4
2018-12-06T11:07:51.398Z,22.6
2018-12-06T11:08:41.203Z,22.8
2018-12-06T11:09:31.538Z,22.9
2018-12-06T11:10:21.928Z,23
2018-12-06T11:11:12.240Z,23.1
2018-12-06T11:12:01.900Z,23.3
2018-12-06T11:12:52.030Z,23.4
2018-12-06T11:13:42.078Z,23.4
2018-12-06T11:14:31.880Z,23.6
2018-12-06T11:15:21.902Z,23.6
2018-12-06T11:16:12.578Z,23.7
2018-12-06T11:17:01.488Z,23.8
2018-12-06T11:17:51.788Z,23.9
2018-12-06T11:18:41.410Z,23.8
2018-12-06T11:19:31.927Z,23.1
2018-12-06T11:20:21.998Z,22.6
2018-12-06T11:21:12.660Z,22.1
2018-12-06T11:22:02.105Z,21.8
2018-12-06T11:22:53.252Z,21.5
2018-12-06T11:23:42.224Z,21.3
2018-12-06T11:25:22.335Z,21
2018-12-06T11:26:12.112Z,20.8
2018-12-06T11:27:02.799Z,20.7
2018-12-06T11:27:53.132Z,20.6
2018-12-06T11:28:42.077Z,20.4
2018-12-06T11:29:32.339Z,20.4
2018-12-06T11:30:22.729Z,20.3
2018-12-06T11:31:13.630Z,20.1
2018-12-06T11:32:02.886Z,20.1
2018-12-06T11:32:53.189Z,19.9
2018-12-06T11:33:43.264Z,19.9
2018-12-06T11:34:33.508Z,19.8
2018-12-06T11:35:23.349Z,19.7
2018-12-06T11:36:12.514Z,19.6
2018-12-06T11:37:02.866Z,19.5
2018-12-06T11:37:53.804Z,19.4
2018-12-06T11:38:44.179Z,19.3
2018-12-06T11:39:33.045Z,19.3
2018-12-06T11:40:23.404Z,19.1
2018-12-06T11:41:13.746Z,19.1
2018-12-06T11:42:03.901Z,18.9
2018-12-06T11:42:54.361Z,18.9
2018-12-06T11:43:43.654Z,18.8
2018-12-06T11:45:23.458Z,18.6
2018-12-06T11:47:03.375Z,19.1
2018-12-06T11:47:55.940Z,19.7
2018-12-06T11:48:44.196Z,20.3
2018-12-06T11:49:33.471Z,20.9
2018-12-06T11:50:24.051Z,21.3
2018-12-06T11:51:14.944Z,21.6
2018-12-06T11:52:04.593Z,21.9
2018-12-06T11:52:53.683Z,22.1
2018-12-06T11:53:44.051Z,22.4
2018-12-06T11:54:34.905Z,22.6
2018-12-06T11:55:26.173Z,22.7
2018-12-06T11:56:15.060Z,22.9
2018-12-06T11:57:05.093Z,23.1
2018-12-06T11:57:54.702Z,23.1
2018-12-06T11:58:44.423Z,23.3
2018-12-06T11:59:34.532Z,23.4
2018-12-06T12:00:25.235Z,23.4
2018-12-06T12:01:15.338Z,23.5
2018-12-06T12:02:13.270Z,23.6
2018-12-06T12:02:54.941Z,23.8
2018-12-06T12:03:46.145Z,23.8
2018-12-06T12:04:35.355Z,23.9
2018-12-06T12:05:25.925Z,23.9
2018-12-06T12:06:15.466Z,24
2018-12-06T12:07:05.910Z,23.5
2018-12-06T12:07:55.314Z,22.9
2018-12-06T12:08:46.022Z,22.4
2018-12-06T12:09:36.102Z,22.1
2018-12-06T12:10:26.077Z,21.8
2018-12-06T12:11:15.607Z,21.5
2018-12-06T12:12:05.404Z,21.3
2018-12-06T12:13:46.045Z,21
2018-12-06T12:14:35.039Z,20.8
2018-12-06T12:15:25.551Z,20.7
2018-12-06T12:16:16.418Z,20.6
2018-12-06T12:17:06.749Z,20.4